createdAt,value
2023-03-06T00:00:55.981Z,44.71
2023-03-06T00:03:23.335Z,44.67
2023-03-06T00:05:50.633Z,44.75
2023-03-06T00:08:17.453Z,44.55
2023-03-06T00:10:44.380Z,45.01
2023-03-06T00:13:19.039Z,44.39
2023-03-06T00:15:47.725Z,44.45
2023-03-06T00:18:16.152Z,44.52
2023-03-06T00:20:44.361Z,44.45
2023-03-06T00:23:11.886Z,44.71
2023-03-06T00:25:44.585Z,44.78
2023-03-06T00:28:14.645Z,44.47
2023-03-06T00:30:42.210Z,44.60
2023-03-06T00:33:08.974Z,44.87
2023-03-06T00:35:38.596Z,44.53
2023-03-06T00:38:05.357Z,44.90
2023-03-06T00:40:33.027Z,44.48
2023-03-06T00:43:00.130Z,45.04
2023-03-06T00:45:27.102Z,44.88
2023-03-06T00:47:54.019Z,44.59
2023-03-06T00:50:20.909Z,44.70
2023-03-06T00:52:47.694Z,44.39
2023-03-06T00:55:14.513Z,44.50
2023-03-06T00:57:41.346Z,44.46
2023-03-06T01:00:11.128Z,44.42
2023-03-06T01:02:38.229Z,44.79
2023-03-06T01:05:05.785Z,44.70
2023-03-06T01:07:36.294Z,44.54
2023-03-06T01:10:05.790Z,44.72
2023-03-06T01:12:32.555Z,44.55
2023-03-06T01:14:59.575Z,44.82
2023-03-06T01:17:26.480Z,44.45
2023-03-06T01:19:53.246Z,44.48
2023-03-06T01:22:20.048Z,44.67
2023-03-06T01:24:46.842Z,44.26
2023-03-06T01:27:14.452Z,44.61
2023-03-06T01:29:43.748Z,44.63
2023-03-06T01:32:10.525Z,44.45
2023-03-06T01:34:37.296Z,44.46
2023-03-06T01:37:04.083Z,44.70
2023-03-06T01:39:31.480Z,44.53
2023-03-06T01:41:58.280Z,44.46
2023-03-06T01:44:25.073Z,44.73
2023-03-06T01:46:51.880Z,44.44
2023-03-06T01:49:34.252Z,44.60
2023-03-06T01:52:10.836Z,44.85
2023-03-06T01:54:56.918Z,44.57
2023-03-06T01:57:29.135Z,44.53
2023-03-06T02:00:15.045Z,44.98
2023-03-06T02:02:47.633Z,44.88
2023-03-06T02:05:14.875Z,44.99
2023-03-06T02:07:44.035Z,44.67
2023-03-06T02:10:14.965Z,44.65
2023-03-06T02:12:43.667Z,44.95
2023-03-06T02:15:13.953Z,44.76
2023-03-06T02:17:44.499Z,45.04
2023-03-06T02:20:26.294Z,45.09
2023-03-06T02:23:32.152Z,45.14
2023-03-06T02:25:59.733Z,44.97
2023-03-06T02:28:26.926Z,45.30
2023-03-06T02:30:55.632Z,45.06
2023-03-06T02:33:26.678Z,45.25
2023-03-06T02:35:58.851Z,45.19
2023-03-06T02:38:33.388Z,45.29
2023-03-06T02:41:03.969Z,45.06
2023-03-06T02:43:37.177Z,45.29
2023-03-06T02:46:04.281Z,45.14
2023-03-06T02:48:31.107Z,45.25
2023-03-06T02:50:57.856Z,45.17
2023-03-06T02:53:25.914Z,45.36
2023-03-06T02:55:52.765Z,45.17
2023-03-06T02:58:20.839Z,45.20
2023-03-06T03:00:49.995Z,45.10
2023-03-06T03:03:18.066Z,45.45
2023-03-06T03:05:44.923Z,45.38
2023-03-06T03:08:20.240Z,45.45
2023-03-06T03:10:48.338Z,45.21
2023-03-06T03:13:15.417Z,45.28
2023-03-06T03:15:42.463Z,45.71
2023-03-06T03:18:11.549Z,45.48
2023-03-06T03:20:42.845Z,45.34
2023-03-06T03:23:09.834Z,45.53
2023-03-06T03:25:36.613Z,45.33
2023-03-06T03:28:04.083Z,45.54
2023-03-06T03:30:31.182Z,45.74
2023-03-06T03:32:58.033Z,45.66
2023-03-06T03:35:25.448Z,45.43
2023-03-06T03:37:54.538Z,45.54
2023-03-06T03:40:21.462Z,45.72
2023-03-06T03:42:49.951Z,45.72
2023-03-06T03:45:17.047Z,45.62
2023-03-06T03:47:43.916Z,45.70
2023-03-06T03:50:12.501Z,45.84
2023-03-06T03:52:40.053Z,45.86
2023-03-06T03:55:07.848Z,45.78
2023-03-06T03:57:34.854Z,45.72
2023-03-06T04:00:01.693Z,45.62
2023-03-06T04:02:40.480Z,45.86
2023-03-06T04:05:18.348Z,45.59
2023-03-06T04:07:46.251Z,45.80
2023-03-06T04:10:14.826Z,46.09
2023-03-06T04:12:42.182Z,45.80
2023-03-06T04:15:11.369Z,45.80
2023-03-06T04:17:38.970Z,46.08
2023-03-06T04:20:10.357Z,45.74
2023-03-06T04:22:38.006Z,45.81
2023-03-06T04:25:05.556Z,45.82
2023-03-06T04:27:32.365Z,45.84
2023-03-06T04:29:59.288Z,45.97
2023-03-06T04:32:26.278Z,45.98
2023-03-06T04:34:53.094Z,46.04
2023-03-06T04:37:24.199Z,45.92
2023-03-06T04:39:51.901Z,45.65
2023-03-06T04:42:19.118Z,45.89
2023-03-06T04:44:46.068Z,45.74
2023-03-06T04:47:13.102Z,45.74
2023-03-06T04:49:40.148Z,45.87
2023-03-06T04:52:07.446Z,45.83
2023-03-06T04:54:34.192Z,45.96
2023-03-06T04:57:01.156Z,45.82
2023-03-06T04:59:27.976Z,46.04
2023-03-06T05:01:55.106Z,45.61
2023-03-06T05:04:21.888Z,45.82
2023-03-06T05:06:49.832Z,45.65
2023-03-06T05:09:16.718Z,45.86
2023-03-06T05:11:43.508Z,45.59
2023-03-06T05:14:10.272Z,45.73
2023-03-06T05:16:37.057Z,45.62
2023-03-06T05:19:03.895Z,45.74
2023-03-06T05:21:30.669Z,45.73
2023-03-06T05:23:57.632Z,45.76
2023-03-06T05:26:24.471Z,45.97
2023-03-06T05:28:51.271Z,45.81
2023-03-06T05:31:18.172Z,45.67
2023-03-06T05:33:45.034Z,45.70
2023-03-06T05:36:12.082Z,45.70
2023-03-06T05:38:38.876Z,46.04
2023-03-06T05:41:05.687Z,45.87
2023-03-06T05:43:32.449Z,45.72
2023-03-06T05:46:04.571Z,45.99
2023-03-06T05:48:32.192Z,45.77
2023-03-06T05:51:00.956Z,45.78
2023-03-06T05:53:29.224Z,45.99
2023-03-06T05:56:11.463Z,45.93
2023-03-06T05:58:38.670Z,45.78
2023-03-06T06:01:15.150Z,45.86
2023-03-06T06:03:42.169Z,45.78
2023-03-06T06:06:11.527Z,45.96
2023-03-06T06:08:38.375Z,45.78
2023-03-06T06:11:07.456Z,45.97
2023-03-06T06:13:34.646Z,45.75
2023-03-06T06:16:16.541Z,45.92
2023-03-06T06:18:43.834Z,45.95
2023-03-06T06:21:13.490Z,45.76
2023-03-06T06:23:40.843Z,45.68
2023-03-06T06:26:09.843Z,45.99
2023-03-06T06:28:37.312Z,45.92
2023-03-06T06:31:13.892Z,45.99
2023-03-06T06:33:41.296Z,45.79
2023-03-06T06:36:19.974Z,45.87
2023-03-06T06:38:47.572Z,45.84
2023-03-06T06:44:05.105Z,45.78
2023-03-06T06:47:19.298Z,46.04
2023-03-06T06:49:20.361Z,46.06
2023-03-06T06:51:47.202Z,45.89
2023-03-06T06:54:14.238Z,45.85
2023-03-06T06:56:41.070Z,45.98
2023-03-06T06:59:16.704Z,46.12
2023-03-06T07:01:44.505Z,46.02
2023-03-06T07:04:13.627Z,46.25
2023-03-06T07:06:41.731Z,45.93
2023-03-06T07:09:08.753Z,45.82
2023-03-06T07:11:37.082Z,45.85
2023-03-06T07:14:03.861Z,45.85
2023-03-06T07:16:30.659Z,45.75
2023-03-06T07:18:57.416Z,46.01
2023-03-06T07:21:24.192Z,46.06
2023-03-06T07:23:51.008Z,45.86
2023-03-06T07:26:17.810Z,45.62
2023-03-06T07:28:52.397Z,45.70
2023-03-06T07:31:26.149Z,45.76
2023-03-06T07:33:54.475Z,45.72
2023-03-06T07:36:23.443Z,45.78
2023-03-06T07:38:50.238Z,46.00
2023-03-06T07:41:20.454Z,46.07
2023-03-06T07:43:49.267Z,46.06
2023-03-06T07:46:17.825Z,45.98
2023-03-06T07:48:44.867Z,46.21
2023-03-06T07:51:18.753Z,46.40
2023-03-06T07:53:45.755Z,46.12
2023-03-06T07:56:13.426Z,46.32
2023-03-06T07:58:43.486Z,46.18
2023-03-06T08:01:20.675Z,46.26
2023-03-06T08:03:49.871Z,46.32
2023-03-06T08:06:21.709Z,46.19
2023-03-06T08:08:50.292Z,46.42
2023-03-06T08:11:20.862Z,46.26
2023-03-06T08:13:48.785Z,46.50
2023-03-06T08:16:17.619Z,46.45
2023-03-06T08:18:46.399Z,46.35
2023-03-06T08:21:20.659Z,46.17
2023-03-06T08:23:47.980Z,46.35
2023-03-06T08:26:21.637Z,46.39
2023-03-06T08:28:50.956Z,46.22
2023-03-06T08:31:38.020Z,46.32
2023-03-06T08:34:12.442Z,46.52
2023-03-06T08:36:39.474Z,46.61
2023-03-06T08:39:07.527Z,46.19
2023-03-06T08:41:36.539Z,46.34
2023-03-06T08:44:04.164Z,46.51
2023-03-06T08:46:31.949Z,46.48
2023-03-06T08:48:59.087Z,46.33
2023-03-06T08:51:26.307Z,46.28
2023-03-06T08:53:53.190Z,46.67
2023-03-06T08:56:28.982Z,46.52
2023-03-06T08:58:59.016Z,46.45
2023-03-06T09:01:29.571Z,46.58
2023-03-06T09:04:00.308Z,46.76
2023-03-06T09:06:31.143Z,46.52
2023-03-06T09:08:58.511Z,46.54
2023-03-06T09:11:27.174Z,46.75
2023-03-06T09:13:55.252Z,46.57
2023-03-06T09:16:24.203Z,46.68
2023-03-06T09:18:52.813Z,46.54
2023-03-06T09:21:21.488Z,46.47
2023-03-06T09:23:48.766Z,46.50
2023-03-06T09:26:15.602Z,46.82
2023-03-06T09:28:42.442Z,46.54
2023-03-06T09:31:17.300Z,46.66
2023-03-06T09:33:44.668Z,46.97
2023-03-06T09:36:20.814Z,46.80
2023-03-06T09:38:49.711Z,46.88
2023-03-06T09:41:35.788Z,47.05
2023-03-06T09:44:28.597Z,47.08
2023-03-06T09:47:21.286Z,47.12
2023-03-06T09:50:13.928Z,47.32
2023-03-06T09:52:56.877Z,47.14
2023-03-06T09:55:32.765Z,46.93
2023-03-06T09:58:23.634Z,46.89
2023-03-06T10:01:05.555Z,47.04
2023-03-06T10:03:36.662Z,47.06
2023-03-06T10:06:37.526Z,47.05
2023-03-06T10:09:14.916Z,47.16
2023-03-06T10:11:56.910Z,46.82
2023-03-06T10:14:38.738Z,46.71
2023-03-06T10:17:06.662Z,46.61
2023-03-06T10:19:40.009Z,46.70
2023-03-06T10:22:39.763Z,46.69
2023-03-06T10:25:29.143Z,46.66
2023-03-06T10:28:18.529Z,46.53
2023-03-06T10:31:18.788Z,46.73
2023-03-06T10:33:51.248Z,46.81
2023-03-06T10:36:20.776Z,46.67
2023-03-06T10:38:49.026Z,46.38
2023-03-06T10:41:31.333Z,46.17
2023-03-06T10:44:00.777Z,45.94
2023-03-06T10:46:36.354Z,45.78
2023-03-06T10:49:14.079Z,45.76
2023-03-06T10:51:57.231Z,45.73
2023-03-06T10:54:24.438Z,45.47
2023-03-06T10:56:51.245Z,45.52
2023-03-06T10:59:28.124Z,45.14
2023-03-06T11:01:58.408Z,45.46
2023-03-06T11:04:32.503Z,45.41
2023-03-06T11:07:13.956Z,44.81
2023-03-06T11:09:44.358Z,45.04
2023-03-06T11:12:33.602Z,45.00
2023-03-06T11:15:17.511Z,45.40
2023-03-06T11:18:04.858Z,45.28
2023-03-06T11:20:52.498Z,44.50
2023-03-06T11:23:44.363Z,45.27
2023-03-06T11:26:17.285Z,44.65
2023-03-06T11:29:08.280Z,44.87
2023-03-06T11:32:22.068Z,44.69
2023-03-06T11:34:59.350Z,44.43
2023-03-06T11:37:32.212Z,44.20
2023-03-06T11:40:15.067Z,44.25
2023-03-06T11:43:05.898Z,43.86
2023-03-06T11:45:46.627Z,43.94
2023-03-06T11:48:19.061Z,43.90
2023-03-06T11:50:57.460Z,43.23
2023-03-06T11:53:35.319Z,42.91
2023-03-06T11:56:18.906Z,42.71
2023-03-06T11:59:32.519Z,42.91
2023-03-06T12:02:39.538Z,43.00
2023-03-06T12:05:26.780Z,42.70
2023-03-06T12:08:34.917Z,42.84
2023-03-06T12:11:21.131Z,42.59
2023-03-06T12:14:17.139Z,42.81
2023-03-06T12:17:29.006Z,43.01
2023-03-06T12:20:25.842Z,42.76
2023-03-06T12:23:18.512Z,42.51
2023-03-06T12:26:21.612Z,42.72
2023-03-06T12:29:18.808Z,42.69
2023-03-06T12:31:51.362Z,42.48
2023-03-06T12:35:16.088Z,42.45
2023-03-06T12:38:02.085Z,42.23
2023-03-06T12:41:12.715Z,42.24
2023-03-06T12:44:07.128Z,42.05
2023-03-06T12:46:42.623Z,41.88
2023-03-06T12:49:31.811Z,41.68
2023-03-06T12:52:00.564Z,41.63
2023-03-06T12:54:35.168Z,41.44
2023-03-06T12:57:02.485Z,41.98
2023-03-06T12:59:50.274Z,41.86
2023-03-06T13:02:48.870Z,41.93
2023-03-06T13:05:56.661Z,41.72
2023-03-06T13:09:06.236Z,42.08
2023-03-06T13:11:58.718Z,41.43
2023-03-06T13:14:54.621Z,41.66
2023-03-06T13:17:28.654Z,41.38
2023-03-06T13:20:13.906Z,41.57
2023-03-06T13:22:46.814Z,41.50
2023-03-06T13:25:19.574Z,41.39
2023-03-06T13:27:52.660Z,41.25
2023-03-06T13:30:46.606Z,41.15
2023-03-06T13:33:39.290Z,41.33
2023-03-06T13:36:28.732Z,41.05
2023-03-06T13:38:57.676Z,41.37
2023-03-06T13:41:27.084Z,41.25
2023-03-06T13:43:57.382Z,41.31
2023-03-06T13:46:31.322Z,41.10
2023-03-06T13:49:08.849Z,40.77
2023-03-06T13:51:42.864Z,40.86
2023-03-06T13:54:51.683Z,40.86
2023-03-06T13:57:47.996Z,40.68
2023-03-06T14:00:46.501Z,40.90
2023-03-06T14:03:25.125Z,40.97
2023-03-06T14:05:52.661Z,40.48
2023-03-06T14:08:28.089Z,41.19
2023-03-06T14:11:17.857Z,40.89
2023-03-06T14:13:56.796Z,41.11
2023-03-06T14:16:29.197Z,40.80
2023-03-06T14:19:00.614Z,40.87
2023-03-06T14:21:45.601Z,40.93
2023-03-06T14:24:18.853Z,40.97
2023-03-06T14:26:50.199Z,40.67
2023-03-06T14:29:26.752Z,40.74
2023-03-06T14:31:59.409Z,40.64
2023-03-06T14:34:29.697Z,41.03
2023-03-06T14:37:01.411Z,40.81
2023-03-06T14:39:38.185Z,40.71
2023-03-06T14:42:21.858Z,40.76
2023-03-06T14:45:13.201Z,40.67
2023-03-06T14:47:39.989Z,40.83
2023-03-06T14:50:27.323Z,40.62
2023-03-06T14:53:05.302Z,40.88
2023-03-06T14:55:35.176Z,40.56
2023-03-06T14:58:13.340Z,41.02
2023-03-06T15:00:45.413Z,40.71
2023-03-06T15:03:25.558Z,40.96
2023-03-06T15:05:53.396Z,41.15
2023-03-06T15:08:28.477Z,41.01
2023-03-06T15:10:58.119Z,40.90
2023-03-06T15:13:28.640Z,41.16
2023-03-06T15:16:05.889Z,41.14
2023-03-06T15:18:38.688Z,41.78
2023-03-06T15:21:22.687Z,41.67
2023-03-06T15:23:52.954Z,41.97
2023-03-06T15:26:32.514Z,41.76
2023-03-06T15:29:22.855Z,42.40
2023-03-06T15:31:49.711Z,42.51
2023-03-06T15:34:23.373Z,42.12
2023-03-06T15:36:56.398Z,42.77
2023-03-06T15:39:34.814Z,42.84
2023-03-06T15:42:23.323Z,43.07
2023-03-06T15:44:56.471Z,42.80
2023-03-06T15:47:24.332Z,42.77
2023-03-06T15:49:53.016Z,42.69
2023-03-06T15:52:21.528Z,42.96
2023-03-06T15:54:48.552Z,43.33
2023-03-06T15:57:31.102Z,43.36
2023-03-06T16:00:00.215Z,43.46
2023-03-06T16:02:27.438Z,43.42
2023-03-06T16:04:54.453Z,43.35
2023-03-06T16:07:21.278Z,43.75
2023-03-06T16:09:48.486Z,43.78
2023-03-06T16:12:20.884Z,43.75
2023-03-06T16:14:48.851Z,43.68
2023-03-06T16:17:16.497Z,43.51
2023-03-06T16:19:44.171Z,43.62
2023-03-06T16:22:11.046Z,43.83
2023-03-06T16:24:37.953Z,43.97
2023-03-06T16:27:04.948Z,43.84
2023-03-06T16:29:32.031Z,44.16
2023-03-06T16:32:00.666Z,43.85
2023-03-06T16:34:27.547Z,44.11
2023-03-06T16:36:54.367Z,44.41
2023-03-06T16:39:23.638Z,44.10
2023-03-06T16:41:50.950Z,44.55
2023-03-06T16:44:18.059Z,44.25
2023-03-06T16:46:47.370Z,44.22
2023-03-06T16:49:18.025Z,44.46
2023-03-06T16:51:45.257Z,44.45
2023-03-06T16:54:12.809Z,44.74
2023-03-06T16:56:39.807Z,44.67
2023-03-06T16:59:06.634Z,44.42
2023-03-06T17:01:33.863Z,44.49
2023-03-06T17:04:00.726Z,44.51
2023-03-06T17:06:27.921Z,44.94
2023-03-06T17:08:55.094Z,45.26
2023-03-06T17:11:21.972Z,44.67
2023-03-06T17:13:50.593Z,44.63
2023-03-06T17:16:18.017Z,44.92
2023-03-06T17:18:46.310Z,44.68
2023-03-06T17:21:17.078Z,44.69
2023-03-06T17:23:44.386Z,44.63
2023-03-06T17:26:20.639Z,44.83
2023-03-06T17:28:47.644Z,44.59
2023-03-06T17:31:15.849Z,44.55
2023-03-06T17:33:42.703Z,44.48
2023-03-06T17:36:10.141Z,44.76
2023-03-06T17:38:37.501Z,44.37
2023-03-06T17:41:06.078Z,44.73
2023-03-06T17:43:33.130Z,44.20
2023-03-06T17:46:05.101Z,44.58
2023-03-06T17:48:32.305Z,44.42
2023-03-06T17:50:59.109Z,44.47
2023-03-06T17:53:26.737Z,44.21
2023-03-06T17:55:54.525Z,44.22
2023-03-06T17:58:21.379Z,44.13
2023-03-06T18:00:48.211Z,44.41
2023-03-06T18:03:15.217Z,44.34
2023-03-06T18:05:42.073Z,44.18
2023-03-06T18:08:10.138Z,44.38
2023-03-06T18:10:41.454Z,44.46
2023-03-06T18:13:10.090Z,44.06
2023-03-06T18:15:41.480Z,44.17
2023-03-06T18:18:08.874Z,44.24
2023-03-06T18:20:41.277Z,44.33
2023-03-06T18:23:08.108Z,44.20
2023-03-06T18:25:35.238Z,44.40
2023-03-06T18:28:02.065Z,44.13
2023-03-06T18:30:28.979Z,44.20
2023-03-06T18:32:55.748Z,44.31
2023-03-06T18:35:22.578Z,44.38
2023-03-06T18:37:49.425Z,44.11
2023-03-06T18:40:16.296Z,44.34
2023-03-06T18:42:43.147Z,44.52
2023-03-06T18:45:11.448Z,44.23
2023-03-06T18:47:39.402Z,43.97
2023-03-06T18:50:07.111Z,44.16
2023-03-06T18:52:34.765Z,44.05
2023-03-06T18:55:01.619Z,44.15
2023-03-06T18:57:30.312Z,44.11
2023-03-06T18:59:57.288Z,43.87
2023-03-06T19:02:24.111Z,44.16
2023-03-06T19:04:52.682Z,44.18
2023-03-06T19:07:20.628Z,44.10
2023-03-06T19:09:50.842Z,43.90
2023-03-06T19:12:17.785Z,43.77
2023-03-06T19:14:44.940Z,44.15
2023-03-06T19:17:11.786Z,44.03
2023-03-06T19:19:38.551Z,43.85
2023-03-06T19:22:05.864Z,44.06
2023-03-06T19:24:32.618Z,43.76
2023-03-06T19:26:59.393Z,43.68
2023-03-06T19:29:26.307Z,43.64
2023-03-06T19:31:53.198Z,43.79
2023-03-06T19:34:20.266Z,43.64
2023-03-06T19:36:49.861Z,43.48
2023-03-06T19:39:16.655Z,43.70
2023-03-06T19:41:43.463Z,43.46
2023-03-06T19:44:12.109Z,43.83
2023-03-06T19:46:40.514Z,43.63
2023-03-06T19:49:11.957Z,43.39
2023-03-06T19:51:38.836Z,43.71
2023-03-06T19:54:05.816Z,43.67
2023-03-06T19:56:33.542Z,43.42
2023-03-06T19:59:00.415Z,43.47
2023-03-06T20:01:28.093Z,43.26
2023-03-06T20:03:58.751Z,43.69
2023-03-06T20:06:33.539Z,43.52
2023-03-06T20:09:03.287Z,43.60
2023-03-06T20:11:30.949Z,43.39
2023-03-06T20:14:00.472Z,43.63
2023-03-06T20:16:29.484Z,43.42
2023-03-06T20:18:58.770Z,43.31
2023-03-06T20:21:27.704Z,43.31
2023-03-06T20:23:56.895Z,43.51
2023-03-06T20:26:25.543Z,43.29
2023-03-06T20:28:52.329Z,43.71
2023-03-06T20:31:22.607Z,43.23
2023-03-06T20:33:51.987Z,43.16
2023-03-06T20:36:27.367Z,43.20
2023-03-06T20:38:54.992Z,43.08
2023-03-06T20:41:25.842Z,43.58
2023-03-06T20:43:53.272Z,43.28
2023-03-06T20:46:22.448Z,43.05
2023-03-06T20:48:51.667Z,43.60
2023-03-06T20:51:21.444Z,43.38
2023-03-06T20:53:52.979Z,43.61
2023-03-06T20:56:24.568Z,43.33
2023-03-06T20:58:51.972Z,43.24
2023-03-06T21:01:25.526Z,43.44
2023-03-06T21:03:52.727Z,43.26
2023-03-06T21:06:20.806Z,43.58
2023-03-06T21:08:47.981Z,43.14
2023-03-06T21:11:15.901Z,43.48
2023-03-06T21:13:42.791Z,43.51
2023-03-06T21:16:13.555Z,43.34
2023-03-06T21:18:40.405Z,43.25
2023-03-06T21:21:19.177Z,43.73
2023-03-06T21:23:47.812Z,43.51
2023-03-06T21:26:18.243Z,43.73
2023-03-06T21:28:45.418Z,43.45
2023-03-06T21:31:14.968Z,43.43
2023-03-06T21:33:42.797Z,43.64
2023-03-06T21:36:09.959Z,43.82
2023-03-06T21:38:37.408Z,43.53
2023-03-06T21:41:17.106Z,43.82
2023-03-06T21:43:44.220Z,43.78
2023-03-06T21:46:11.514Z,43.73
2023-03-06T21:48:38.800Z,43.83
2023-03-06T21:51:18.168Z,43.84
2023-03-06T21:53:46.453Z,43.74
2023-03-06T21:56:15.600Z,43.68
2023-03-06T21:58:42.493Z,43.83
2023-03-06T22:01:17.349Z,43.79
2023-03-06T22:03:44.384Z,43.83
2023-03-06T22:06:16.910Z,43.77
2023-03-06T22:08:44.686Z,43.62
2023-03-06T22:11:18.080Z,43.67
2023-03-06T22:13:45.554Z,43.66
2023-03-06T22:16:12.780Z,43.57
2023-03-06T22:18:40.178Z,43.92
2023-03-06T22:21:10.591Z,43.97
2023-03-06T22:23:38.124Z,43.85
2023-03-06T22:26:08.674Z,43.75
2023-03-06T22:28:36.002Z,43.88
2023-03-06T22:31:25.182Z,43.71
2023-03-06T22:33:57.133Z,43.79
2023-03-06T22:36:24.592Z,43.77
2023-03-06T22:38:56.416Z,43.84
2023-03-06T22:41:25.589Z,43.77
2023-03-06T22:43:55.935Z,43.86
2023-03-06T22:46:23.370Z,43.85
2023-03-06T22:48:50.209Z,43.98
2023-03-06T22:51:20.115Z,43.72
2023-03-06T22:53:47.668Z,43.67
2023-03-06T22:56:18.505Z,43.58
2023-03-06T22:58:45.789Z,43.77
2023-03-06T23:01:16.485Z,43.60
2023-03-06T23:03:46.910Z,43.88
2023-03-06T23:06:20.499Z,43.64
2023-03-06T23:08:55.087Z,43.89
2023-03-06T23:11:23.096Z,43.52
2023-03-06T23:14:11.907Z,43.77
2023-03-06T23:16:57.533Z,43.83
2023-03-06T23:19:42.779Z,43.74
2023-03-06T23:22:28.104Z,43.79
2023-03-06T23:25:13.557Z,44.00
2023-03-06T23:27:41.018Z,43.62
2023-03-06T23:30:09.358Z,43.92
2023-03-06T23:32:36.600Z,43.63
2023-03-06T23:35:03.615Z,43.66
2023-03-06T23:37:30.448Z,43.83
2023-03-06T23:39:58.013Z,43.82
2023-03-06T23:42:24.781Z,43.67
2023-03-06T23:44:51.933Z,43.88
2023-03-06T23:47:19.925Z,43.62
2023-03-06T23:49:46.750Z,43.74
2023-03-06T23:52:13.513Z,43.75
2023-03-06T23:54:40.340Z,43.82
2023-03-06T23:57:07.249Z,43.81
2023-03-06T23:59:34.049Z,43.75
